Flight Track Log - Related Links

Times and Time Zones

All times are in EDT time to prevent confusion due to time zone crossing. See the UAL395 flight status page for this flight to view local times or setup timezone preferences in your user account.

Time Position Orientation Groundspeed Altitude Reporting Facility
EDT Latitude Longitude Course Direction KTS MPH feet Rate Location/Type
Sun 07:30:33 PM 42.0000 -87.9500 270° West 158 182 1,800  Level Chicago TRACON
Sun 07:31:33 PM 42.0333 -87.9833 323° Northwest 200 230 3,000 1,550 Climbing Chicago TRACON
Sun 07:32:33 PM 42.1000 -88.0167 340° North 258 297 4,900 1,613 Climbing Chicago TRACON
Sun 07:33:06 PM 42.1331 -88.0447 328° Northwest 257 296 5,500 2,211 Climbing Chicago Center
Sun 07:34:00 PM 41.9667 -88.7087 270° West  Level FlightAware Approximate
Sun 07:34:08 PM 42.1678 -88.1325 298° West 300 345 8,400  Level Chicago Center
Sun 07:35:00 PM 41.9668 -88.8704 270° West  Level FlightAware Approximate
Sun 07:35:10 PM 42.1578 -88.2428 263° West 302 348 10,300  Level Chicago Center
Sun 07:36:12 PM 42.1367 -88.3703 257° West 347 399 12,300 1,756 Climbing Chicago Center
Sun 07:37:13 PM 42.1122 -88.5094 257° West 377 434 13,900 2,634 Climbing Chicago Center
Sun 07:38:15 PM 42.0806 -88.7006 257° West 432 497 17,700 2,952 Climbing Chicago Center
Sun 07:39:17 PM 42.0544 -88.8633 258° West 446 513 20,000 2,226 Climbing Chicago Center
Sun 07:40:19 PM 42.0464 -89.0342 266° West 465 535 22,300 1,984 Climbing Chicago Center
Sun 07:41:21 PM 42.0425 -89.2122 268° West 475 547 24,100 1,306 Climbing Chicago Center
Sun 07:42:23 PM 42.0386 -89.3939 268° West 487 560 25,000 1,065 Climbing Chicago Center
Sun 07:43:25 PM 42.0339 -89.6117 268° West 490 564 26,300 1,161 Climbing Chicago Center
Sun 07:44:27 PM 42.0439 -89.7897 274° West 483 556 27,400 976 Climbing Chicago Center
Sun 07:45:28 PM 42.0572 -89.9681 276° West 483 556 28,300 927 Climbing Chicago Center
Sun 07:46:30 PM 42.0689 -90.1475 275° West 486 559 29,300 1,016 Climbing Chicago Center
Sun 07:47:32 PM 42.0806 -90.3231 275° West 478 550 30,400 1,016 Climbing Chicago Center
Sun 07:48:34 PM 42.0947 -90.5308 275° West 469 540 31,400 823 Climbing Chicago Center
Sun 07:49:36 PM 42.1064 -90.7067 275° West 473 544 32,100 629 Climbing Chicago Center
Sun 07:50:38 PM 42.1186 -90.8817 275° West 474 545 32,700 581 Climbing Chicago Center
Sun 07:51:40 PM 42.1294 -91.0569 275° West 473 544 33,300 532 Climbing Chicago Center
Sun 07:52:42 PM 42.1403 -91.2336 275° West 476 548 33,800 339 Climbing Chicago Center
Sun 07:53:44 PM 42.1522 -91.4097 275° West 473 544 34,000 97 Climbing Chicago Center
Sun 07:54:46 PM 42.1678 -91.6186 276° West 470 541 34,000  Level Chicago Center
Sun 07:55:48 PM 42.1800 -91.7944 275° West 471 542 34,000  Level Chicago Center
Sun 07:56:50 PM 42.1931 -91.9678 276° West 468 539 34,000  Level Chicago Center
Sun 07:57:51 PM 42.2053 -92.1431 275° West 469 540 34,000  Level Chicago Center
Sun 07:58:53 PM 42.2169 -92.3178 275° West 470 541 34,000  Level Chicago Center
Sun 07:59:56 PM 42.2289 -92.4919 275° West 469 540 34,000  Level Chicago Center
Sun 08:00:57 PM 42.2428 -92.7011 275° West 469 540 34,000  Level Chicago Center
Sun 08:03:01 PM 42.2650 -93.0522 275° West 475 547 34,000  Level Chicago Center
Sun 08:04:13 PM 42.2783 -93.2622 275° West 475 547 34,000  Level Minneapolis Center
Sun 08:05:14 PM 42.2861 -93.4375 273° West 474 545 34,000  Level Minneapolis Center
Sun 08:06:16 PM 42.2483 -93.6042 253° West 468 539 34,000  Level Minneapolis Center
Sun 08:07:18 PM 42.1994 -93.8006 251° West 467 537 34,000  Level Minneapolis Center
Sun 08:08:19 PM 42.1658 -93.9425 252° West 465 535 34,000  Level Minneapolis Center
Sun 08:09:21 PM 42.1175 -94.1411 252° West 466 536 34,000  Level Minneapolis Center
Sun 08:10:23 PM 42.0739 -94.3069 251° West 471 542 34,000  Level Minneapolis Center
Sun 08:11:24 PM 42.0317 -94.4747 251° West 476 548 34,000  Level Minneapolis Center
Sun 08:12:26 PM 41.9883 -94.6444 251° West 480 552 34,000  Level Minneapolis Center
Sun 08:13:28 PM 41.9453 -94.8114 251° West 475 547 34,000  Level Minneapolis Center
Sun 08:14:29 PM 41.9031 -94.9781 251° West 473 544 34,000  Level Minneapolis Center
Sun 08:15:31 PM 41.8597 -95.1431 251° West 471 542 34,000  Level Minneapolis Center
Sun 08:16:32 PM 41.8067 -95.3442 251° West 477 549 34,000  Level Minneapolis Center
Sun 08:17:34 PM 41.7622 -95.5094 250° West 476 548 34,000  Level Minneapolis Center
Sun 08:18:35 PM 41.7189 -95.6750 251° West 474 545 34,000  Level Minneapolis Center
Sun 08:19:37 PM 41.6750 -95.8372 250° West 469 540 34,000  Level Minneapolis Center
Sun 08:20:38 PM 41.6294 -96.0111 251° West 470 541 34,000  Level Minneapolis Center
Sun 08:21:40 PM 41.5861 -96.1742 250° West 467 537 34,000  Level Minneapolis Center
Sun 08:22:41 PM 41.5417 -96.3378 250° West 468 539 34,000  Level Minneapolis Center
Sun 08:23:43 PM 41.4903 -96.5150 249° West 468 539 34,000  Level Minneapolis Center
Sun 08:24:44 PM 41.4450 -96.6764 250° West 469 540 34,000  Level Minneapolis Center
Sun 08:25:46 PM 41.4003 -96.8375 250° West 467 537 34,000  Level Minneapolis Center
Sun 08:26:47 PM 41.3533 -97.0000 249° West 469 540 34,000  Level Minneapolis Center
Sun 08:27:49 PM 41.3089 -97.1622 250° West 469 540 34,000  Level Minneapolis Center
Sun 08:28:50 PM 41.2622 -97.3225 249° West 466 536 34,000  Level Minneapolis Center
Sun 08:29:52 PM 41.2106 -97.5022 249° West 465 535 34,000  Level Minneapolis Center
Sun 08:30:53 PM 41.1636 -97.6619 249° West 464 534 34,000  Level Minneapolis Center
Sun 08:32:07 PM 41.1175 -97.8228 249° West 464 534 34,000  Level Minneapolis Center
Sun 08:33:09 PM 41.0614 -98.0161 249° West 467 537 34,000  Level Minneapolis Center
Sun 08:34:10 PM 41.0139 -98.1767 249° West 467 537 34,000  Level Minneapolis Center
Sun 08:35:12 PM 40.9661 -98.3375 249° West 467 537 34,000  Level Minneapolis Center
Sun 08:36:14 PM 40.9164 -98.5050 249° West 468 539 34,000  Level Minneapolis Center
Sun 08:37:15 PM 40.8675 -98.6656 248° West 470 541 34,000  Level Minneapolis Center
Sun 08:38:17 PM 40.8194 -98.8267 249° West 472 543 34,000  Level Minneapolis Center
Sun 08:39:19 PM 40.7625 -99.0178 249° West 469 540 34,000  Level Minneapolis Center
Sun 08:40:20 PM 40.7128 -99.1778 248° West 467 537 34,000  Level Minneapolis Center
Sun 08:40:57 PM 40.6839 -99.2719 248° West 465 535 34,000  Level Denver Center
Sun 08:41:59 PM 40.6358 -99.4308 248° West 465 535 34,000  Level Denver Center
Sun 08:43:01 PM 40.5858 -99.5889 247° West 466 536 34,000  Level Denver Center
Sun 08:44:03 PM 40.5375 -99.7481 248° West 468 539 34,000  Level Denver Center
Sun 08:45:05 PM 40.4872 -99.9067 247° West 466 536 34,000  Level Denver Center
Sun 08:46:07 PM 40.4319 -100.0822 248° West 465 535 34,000  Level Denver Center
Sun 08:47:09 PM 40.3844 -100.2319 247° West 463 533 34,000  Level Denver Center
Sun 08:48:11 PM 40.3269 -100.4064 247° West 465 535 34,000  Level Denver Center
Sun 08:49:13 PM 40.2794 -100.5558 247° West 463 533 34,000  Level Denver Center
Sun 08:50:15 PM 40.2239 -100.7300 247° West 462 532 34,000  Level Denver Center
Sun 08:51:17 PM 40.1753 -100.8792 247° West 463 533 34,000  Level Denver Center
Sun 08:52:19 PM 40.1267 -101.0292 247° West 465 535 34,000  Level Denver Center
Sun 08:53:21 PM 40.0708 -101.2028 247° West 464 534 34,000  Level Denver Center
Sun 08:54:22 PM 40.0211 -101.3500 246° West 463 533 34,000  Level Denver Center
Sun 08:55:24 PM 39.9644 -101.5211 247° West 458 527 34,000  Level Denver Center
Sun 08:56:26 PM 39.9144 -101.6689 246° West 463 533 34,000  Level Denver Center
Sun 08:57:28 PM 39.8575 -101.8408 247° West 465 535 34,000  Level Denver Center
Sun 08:58:30 PM 39.8075 -101.9878 246° West 465 535 34,000  Level Denver Center
Sun 08:59:31 PM 39.7492 -102.1586 246° West 463 533 34,000  Level Denver Center
Sun 09:00:34 PM 39.6992 -102.3039 246° West 460 529 34,000  Level Denver Center
Sun 09:01:36 PM 39.6506 -102.4475 246° West 455 524 34,000  Level Denver Center
Sun 09:02:38 PM 39.5939 -102.6086 246° West 450 518 34,000  Level Denver Center
Sun 09:03:40 PM 39.5425 -102.7547 246° West 446 513 34,000  Level Denver Center
Sun 09:04:41 PM 39.4931 -102.9000 246° West 441 507 34,000  Level Denver Center
Sun 09:05:43 PM 39.4419 -103.0450 246° West 443 510 34,000  Level Denver Center
Sun 09:06:45 PM 39.4019 -103.1928 251° West 437 503 34,000  Level Denver Center
Sun 09:07:47 PM 39.3550 -103.3725 251° West 438 504 34,000 48 Level Denver Center
Sun 09:08:49 PM 39.3153 -103.5200 251° West 436 502 34,100 341 Climbing Denver Center
Sun 09:09:50 PM 39.2850 -103.6722 256° West 438 504 34,700 667 Climbing Denver Center
Sun 09:11:04 PM 39.2525 -103.8211 254° West 431 496 35,600 574 Climbing Denver Center
Sun 09:12:06 PM 39.2136 -103.9997 254° West 431 496 36,000 194 Climbing Denver Center
Sun 09:13:08 PM 39.1825 -104.1508 255° West 436 502 36,000  Level Denver Center
Sun 09:14:10 PM 39.1528 -104.2997 256° West 429 494 36,000  Level Denver Center
Sun 09:15:12 PM 39.1117 -104.4794 254° West 434 499 36,000  Level Denver Center
Sun 09:16:14 PM 39.0761 -104.6283 253° West 433 498 36,000  Level Denver Center
Sun 09:17:15 PM 39.0258 -104.7733 246° West 440 506 36,000  Level Denver Center
Sun 09:18:17 PM 38.9772 -104.9172 247° West 438 504 36,000 194 Level Denver Center
Sun 09:19:19 PM 38.9281 -105.0606 246° West 438 504 36,400 629 Climbing Denver Center
Sun 09:20:21 PM 38.8808 -105.2039 247° West 436 502 37,300 683 Climbing Denver Center
Sun 09:21:22 PM 38.8339 -105.3436 247° West 430 495 37,800 293 Climbing Denver Center
Sun 09:22:24 PM 38.7856 -105.4839 246° West 428 493 37,900 97 Climbing Denver Center
Sun 09:23:26 PM 38.7178 -105.6483 242° Southwest 435 501 38,000 44 Climbing Denver Center
Sun 09:24:40 PM 38.6600 -105.7856 242° Southwest 437 503 38,000  Level Denver Center
Sun 09:25:42 PM 38.5883 -105.9528 241° Southwest 435 501 38,000  Level Denver Center
Sun 09:26:44 PM 38.5322 -106.0842 241° Southwest 439 505 38,000  Level Denver Center
Sun 09:27:45 PM 38.4736 -106.2203 241° Southwest 439 505 38,000  Level Denver Center
Sun 09:28:47 PM 38.4133 -106.3583 241° Southwest 441 507 38,000  Level Denver Center
Sun 09:29:49 PM 38.3531 -106.4964 241° Southwest 443 510 38,000  Level Denver Center
Sun 09:30:51 PM 38.2842 -106.6569 241° Southwest 447 514 38,000  Level Denver Center
Sun 09:32:05 PM 38.2261 -106.7900 241° Southwest 450 518 38,000  Level Denver Center
Sun 09:33:07 PM 38.1464 -106.9681 240° Southwest 450 518 38,000  Level Denver Center
Sun 09:34:09 PM 38.0856 -107.1072 241° Southwest 449 517 38,000  Level Denver Center
Sun 09:35:10 PM 38.0269 -107.2408 241° Southwest 450 518 38,000  Level Denver Center
Sun 09:36:12 PM 37.9581 -107.3958 241° Southwest 453 521 38,000  Level Denver Center
Sun 09:37:14 PM 37.8986 -107.5294 241° Southwest 453 521 38,000  Level Denver Center
Sun 09:38:16 PM 37.8281 -107.6831 240° Southwest 453 521 38,000  Level Denver Center
Sun 09:39:18 PM 37.7672 -107.8186 240° Southwest 459 528 38,000  Level Denver Center
Sun 09:40:19 PM 37.6969 -107.9761 241° Southwest 461 531 38,000  Level Denver Center
Sun 09:41:21 PM 37.6358 -108.1072 240° Southwest 456 525 38,000  Level Denver Center
Sun 09:42:23 PM 37.5639 -108.2672 240° Southwest 464 534 38,000  Level Denver Center
Sun 09:43:25 PM 37.5017 -108.3994 239° Southwest 461 531 38,000  Level Denver Center
Sun 09:44:26 PM 37.4511 -108.5128 241° Southwest 463 533 38,000  Level Denver Center
Sun 09:45:40 PM 37.3678 -108.6908 240° Southwest 465 535 38,000  Level Denver Center
Sun 09:46:42 PM 37.2836 -108.8706 240° Southwest 468 539 38,000  Level Denver Center
Sun 09:47:44 PM 37.2203 -109.0056 240° Southwest 472 543 38,000  Level Denver Center
Sun 09:48:46 PM 37.1458 -109.1628 239° Southwest 471 542 38,000  Level Denver Center
Sun 09:49:48 PM 37.0858 -109.2992 241° Southwest 468 539 38,000  Level Denver Center
Sun 09:50:49 PM 37.0189 -109.4603 243° Southwest 471 542 38,000  Level Denver Center
Sun 09:51:51 PM 36.9611 -109.6003 243° Southwest 471 542 38,000  Level Denver Center
Sun 09:52:53 PM 36.9214 -109.7397 250° West 456 525 38,000  Level Denver Center
Sun 09:53:54 PM 36.9042 -109.9150 263° West 456 525 38,000  Level Denver Center
Sun 09:54:56 PM 36.8586 -110.0550 248° West 463 533 38,000  Level Denver Center
Sun 09:55:58 PM 36.7875 -110.2136 241° Southwest 470 541 38,000  Level Denver Center
Sun 09:57:00 PM 36.7269 -110.3525 241° Southwest 462 532 38,000  Level Denver Center
Sun 09:58:01 PM 36.6606 -110.4950 240° Southwest 469 540 38,000  Level Denver Center
Sun 09:59:15 PM 36.5975 -110.6372 241° Southwest 470 541 38,000  Level Denver Center
Sun 10:00:29 PM 36.5186 -110.8103 240° Southwest 475 547 38,000  Level Denver Center
Sun 10:01:43 PM 36.4414 -110.9811 241° Southwest 474 545 38,000  Level Denver Center
Sun 10:02:45 PM 36.3478 -111.1819 240° Southwest 478 550 38,000  Level Denver Center
Sun 10:03:47 PM 36.2833 -111.3244 241° Southwest 476 548 38,000  Level Denver Center
Sun 10:04:49 PM 36.2181 -111.4647 240° Southwest 472 543 38,000  Level Denver Center
Sun 10:05:50 PM 36.1544 -111.6033 240° Southwest 467 537 38,000  Level Denver Center
Sun 10:06:52 PM 36.0917 -111.7381 240° Southwest 459 528 38,000  Level Los Angeles Center
Sun 10:07:54 PM 36.0281 -111.8764 240° Southwest 459 528 38,000  Level Los Angeles Center
Sun 10:08:56 PM 35.9625 -112.0156 240° Southwest 461 531 38,000  Level Los Angeles Center
Sun 10:09:57 PM 35.8978 -112.1508 239° Southwest 461 531 38,000  Level Los Angeles Center
Sun 10:10:59 PM 35.8342 -112.2869 240° Southwest 462 532 38,000  Level Los Angeles Center
Sun 10:12:01 PM 35.7578 -112.4478 240° Southwest 459 528 38,000  Level Los Angeles Center
Sun 10:13:03 PM 35.6953 -112.5806 240° Southwest 454 522 38,000  Level Los Angeles Center
Sun 10:14:05 PM 35.6306 -112.7158 240° Southwest 451 519 38,000  Level Los Angeles Center
Sun 10:15:06 PM 35.5800 -112.8233 240° Southwest 453 521 38,000  Level Los Angeles Center
Sun 10:16:08 PM 35.4981 -112.9928 239° Southwest 459 528 38,000  Level Los Angeles Center
Sun 10:17:10 PM 35.4325 -113.1267 239° Southwest 457 526 38,000  Level Los Angeles Center
Sun 10:18:12 PM 35.3681 -113.2575 239° Southwest 447 514 38,000  Level Los Angeles Center
Sun 10:19:13 PM 35.3044 -113.3917 240° Southwest 453 521 38,000  Level Los Angeles Center
Sun 10:20:15 PM 35.2400 -113.5219 239° Southwest 452 520 38,000  Level Los Angeles Center
Sun 10:21:17 PM 35.1625 -113.6806 239° Southwest 453 521 38,000  Level Los Angeles Center
Sun 10:22:19 PM 35.0972 -113.8142 239° Southwest 461 531 38,000  Level Los Angeles Center
Sun 10:23:33 PM 35.0136 -113.9786 238° Southwest 461 531 38,000 -311 Level Los Angeles Center
Sun 10:24:34 PM 34.9461 -114.1133 239° Southwest 463 533 37,300 -927 Descending Los Angeles Center
Sun 10:25:36 PM 34.8794 -114.2467 239° Southwest 460 529 36,100 -1,403 Descending Los Angeles Center
Sun 10:26:38 PM 34.8125 -114.3817 239° Southwest 463 533 34,400 -1,016 Descending Los Angeles Center
Sun 10:27:40 PM 34.7331 -114.5111 233° Southwest 474 545 34,000 -244 Descending Los Angeles Center
Sun 10:28:41 PM 34.6281 -114.6294 223° Southwest 468 539 33,900 -1,171 Descending Los Angeles Center
Sun 10:29:43 PM 34.5317 -114.7400 223° Southwest 474 545 31,600 -1,984 Descending Los Angeles Center
Sun 10:30:45 PM 34.4322 -114.8522 223° Southwest 486 559 29,800 -1,415 Descending Los Angeles Center
Sun 10:31:46 PM 34.3336 -114.9647 223° Southwest 489 563 28,700 -927 Descending Los Angeles Center
Sun 10:32:48 PM 34.2144 -115.0989 223° Southwest 489 563 27,900 -387 Descending Los Angeles Center
Sun 10:33:50 PM 34.1136 -115.2117 223° Southwest 494 568 27,900  Level Los Angeles Center
Sun 10:35:03 PM 34.0131 -115.3256 223° Southwest 496 571 27,900  Level Los Angeles Center
Sun 10:36:05 PM 33.8931 -115.4611 223° Southwest 494 568 27,900  Level Los Angeles Center
Sun 10:37:07 PM 33.7914 -115.5708 222° Southwest 493 567 27,900 -484 Level Los Angeles Center
Sun 10:38:09 PM 33.6928 -115.6822 223° Southwest 489 563 26,900 -1,366 Descending Los Angeles Center
Sun 10:39:10 PM 33.5964 -115.7983 225° Southwest 492 566 25,100 -1,756 Descending Los Angeles Center
Sun 10:40:12 PM 33.4989 -115.9603 234° Southwest 497 572 23,300 -2,049 Descending Los Angeles Center
Sun 10:41:13 PM 33.3922 -116.0622 219° Southwest 489 563 20,900 -2,488 Descending Los Angeles Center
Sun 10:42:15 PM 33.2925 -116.1617 220° Southwest 471 542 18,200 -2,710 Descending Los Angeles Center
Sun 10:43:17 PM 33.1978 -116.2547 219° Southwest 447 514 15,300 -2,585 Descending Los Angeles Center
Sun 10:44:18 PM 33.1061 -116.3456 220° Southwest 433 498 12,900 -1,610 Descending Los Angeles Center
Sun 10:45:20 PM 33.0208 -116.4275 219° Southwest 407 468 12,000 -926 Descending Los Angeles Center
Sun 10:46:34 PM 32.9272 -116.4906 209° Southwest 335 386 10,800 -1,279 Descending Los Angeles Center
Sun 10:47:36 PM 32.8719 -116.5878 236° Southwest 312 359 9,100 -1,561 Descending Los Angeles Center
Sun 10:48:37 PM 32.8253 -116.6689 236° Southwest 301 346 7,600 -1,073 Descending Los Angeles Center
Sun 10:49:39 PM 32.7800 -116.7481 236° Southwest 296 341 6,900 -871 Descending Los Angeles Center
Sun 10:50:41 PM 32.7408 -116.8144 235° Southwest 261 300 5,800 -864 Descending Los Angeles Center
Sun 10:51:51 PM 32.6833 -116.9000 231° Southwest 220 253 5,000 -969 Descending Southern California TRACON
Sun 10:52:51 PM 32.6833 -116.9667 270° West 215 247 3,700 -1,000 Descending Southern California TRACON
Sun 10:53:51 PM 32.7000 -117.0167 292° West 185 213 3,000 -700 Descending Southern California TRACON

Login

Don't have an account? Register now (free) for customized features, flight alerts, and more!